Arcadia, IN (46030)

6:29 PM EST on December 09, 2016 (GMT -0500)
Becks Corporate | | Change Station

Elev 866 ft 40.19 °N, 86.05 °W | Updated 4 minutes ago

Snow
Snow
24.9 °F
Feels Like 19 °F
N
5.0
Wind Variable Wind from West
Gusts 6.0 mph

Today
High -- | Low -- °F
--% Chance of Precip.
Yesterday
High -- | Low -- °F
Precip. -- in
Pressure 30.52 in
Visibility 10.0 miles
Clouds Overcast 3000 ft
Windchill 19 °F
Dew Point 19 °F
Humidity 79%
Rainfall 0.00 in
Snow Depth Not available.
7:55 AM 5:18 PM
Waxing Gibbous, 78% visible
METAR KTYQ 092315Z AUTO 27006KT 10SM -SN OVC030 M04/M09 A3052 RMK AO2 T10451087
Pressure 30.52 in
Visibility 10.0 miles
Clouds Overcast 3000 ft
Windchill 19 °F
Dew Point 19 °F
Humidity 79%
Rainfall 0.00 in
Snow Depth Not available.
7:55 AM 5:18 PM
Waxing Gibbous, 78% visible
METAR KTYQ 092315Z AUTO 27006KT 10SM -SN OVC030 M04/M09 A3052 RMK AO2 T10451087

10-Day Weather Forecast

Almanac

Astronomy

Dec. 09, 2016 Rise Set
Actual Time
Civil Twilight
Nautical Twilight
Astronomical Twilight
Moon
Length of Visible Light
Length of Day
Tomorrow will be .
, % of the Moon is Illuminated

Today's Extremes

State Highs State Lows

Community

WunderPhotos

Upload Photos

1,956,535 photos uploaded!

WunderBlog® & News

Nearby

Air Quality

  Air Quality AQ Index Pollutant
Not available.

Snow Depth

Station Depth Elevation

Earthquake Activity

City Distance Mag. Time & Date
Minimum magnitude displayed is 2.5.

Coastal Water Temperatures

Place Temperature

Stations

Nearby Weather Stations

Station Location Temp. Windchill Dew Point Humidity Wind Precip. Elev Updated Type
                   

Watches & Warnings

There are currently no watches in effect.